sensor_id;sensor_type;location;lat;lon;timestamp;temperature;humidity
68826;DHT22;55841;53.392;10.086;2022-07-23T00:00:16;16.90;71.90
68826;DHT22;55841;53.392;10.086;2022-07-23T00:02:42;16.90;71.70
68826;DHT22;55841;53.392;10.086;2022-07-23T00:05:08;16.90;72.20
68826;DHT22;55841;53.392;10.086;2022-07-23T00:07:34;16.90;72.40
68826;DHT22;55841;53.392;10.086;2022-07-23T00:09:59;16.90;72.40
68826;DHT22;55841;53.392;10.086;2022-07-23T00:12:25;16.90;72.20
68826;DHT22;55841;53.392;10.086;2022-07-23T00:14:50;16.90;72.30
68826;DHT22;55841;53.392;10.086;2022-07-23T00:17:16;16.90;72.00
68826;DHT22;55841;53.392;10.086;2022-07-23T00:19:41;16.90;71.70
68826;DHT22;55841;53.392;10.086;2022-07-23T00:22:07;16.80;71.80
68826;DHT22;55841;53.392;10.086;2022-07-23T00:24:33;16.80;71.90
68826;DHT22;55841;53.392;10.086;2022-07-23T00:26:58;16.80;71.90
68826;DHT22;55841;53.392;10.086;2022-07-23T00:29:24;16.80;71.80
68826;DHT22;55841;53.392;10.086;2022-07-23T00:31:49;16.80;72.00
68826;DHT22;55841;53.392;10.086;2022-07-23T00:34:15;16.80;72.00
68826;DHT22;55841;53.392;10.086;2022-07-23T00:36:40;16.80;72.20
68826;DHT22;55841;53.392;10.086;2022-07-23T00:39:06;16.70;72.30
68826;DHT22;55841;53.392;10.086;2022-07-23T00:41:31;16.70;72.70
68826;DHT22;55841;53.392;10.086;2022-07-23T00:44:23;16.70;72.80
68826;DHT22;55841;53.392;10.086;2022-07-23T00:46:54;16.70;72.80
68826;DHT22;55841;53.392;10.086;2022-07-23T00:49:21;16.70;73.00
68826;DHT22;55841;53.392;10.086;2022-07-23T00:51:48;16.70;72.90
68826;DHT22;55841;53.392;10.086;2022-07-23T00:54:13;16.70;73.10
68826;DHT22;55841;53.392;10.086;2022-07-23T00:56:39;16.70;73.10
68826;DHT22;55841;53.392;10.086;2022-07-23T00:59:07;16.70;73.00
68826;DHT22;55841;53.392;10.086;2022-07-23T01:01:33;16.70;73.50
68826;DHT22;55841;53.392;10.086;2022-07-23T01:03:58;16.70;73.50
68826;DHT22;55841;53.392;10.086;2022-07-23T01:06:24;16.70;73.00
68826;DHT22;55841;53.392;10.086;2022-07-23T01:08:49;16.60;73.00
68826;DHT22;55841;53.392;10.086;2022-07-23T01:11:16;16.60;73.20
68826;DHT22;55841;53.392;10.086;2022-07-23T01:13:42;16.60;73.20
68826;DHT22;55841;53.392;10.086;2022-07-23T01:16:08;16.60;73.40
68826;DHT22;55841;53.392;10.086;2022-07-23T01:18:34;16.50;73.30
68826;DHT22;55841;53.392;10.086;2022-07-23T01:20:59;16.50;73.60
68826;DHT22;55841;53.392;10.086;2022-07-23T01:23:25;16.50;73.70
68826;DHT22;55841;53.392;10.086;2022-07-23T01:25:54;16.40;73.80
68826;DHT22;55841;53.392;10.086;2022-07-23T01:28:20;16.40;73.80
68826;DHT22;55841;53.392;10.086;2022-07-23T01:30:47;16.40;74.00
68826;DHT22;55841;53.392;10.086;2022-07-23T01:33:13;16.40;74.10
68826;DHT22;55841;53.392;10.086;2022-07-23T01:35:38;16.40;74.30
68826;DHT22;55841;53.392;10.086;2022-07-23T01:38:04;16.40;74.20
68826;DHT22;55841;53.392;10.086;2022-07-23T01:40:29;16.40;74.30
68826;DHT22;55841;53.392;10.086;2022-07-23T01:42:55;16.30;74.50
68826;DHT22;55841;53.392;10.086;2022-07-23T01:45:21;16.30;74.40
68826;DHT22;55841;53.392;10.086;2022-07-23T01:47:46;16.30;74.40
68826;DHT22;55841;53.392;10.086;2022-07-23T01:50:12;16.30;74.70
68826;DHT22;55841;53.392;10.086;2022-07-23T01:52:38;16.30;74.90
68826;DHT22;55841;53.392;10.086;2022-07-23T01:55:04;16.20;75.10
68826;DHT22;55841;53.392;10.086;2022-07-23T01:57:29;16.20;75.10
68826;DHT22;55841;53.392;10.086;2022-07-23T01:59:55;16.10;75.40
68826;DHT22;55841;53.392;10.086;2022-07-23T02:02:20;16.10;75.60
68826;DHT22;55841;53.392;10.086;2022-07-23T02:04:46;16.00;75.80
68826;DHT22;55841;53.392;10.086;2022-07-23T02:07:11;16.00;75.90
68826;DHT22;55841;53.392;10.086;2022-07-23T02:09:37;15.90;76.00
68826;DHT22;55841;53.392;10.086;2022-07-23T02:12:03;15.90;76.20
68826;DHT22;55841;53.392;10.086;2022-07-23T02:14:28;15.90;76.30
68826;DHT22;55841;53.392;10.086;2022-07-23T02:16:54;15.80;76.60
68826;DHT22;55841;53.392;10.086;2022-07-23T02:19:19;15.80;76.50
68826;DHT22;55841;53.392;10.086;2022-07-23T02:21:45;15.80;76.60
68826;DHT22;55841;53.392;10.086;2022-07-23T02:24:11;15.70;76.90
68826;DHT22;55841;53.392;10.086;2022-07-23T02:26:36;15.60;77.10
68826;DHT22;55841;53.392;10.086;2022-07-23T02:29:03;15.60;77.30
68826;DHT22;55841;53.392;10.086;2022-07-23T02:31:28;15.60;77.30
68826;DHT22;55841;53.392;10.086;2022-07-23T02:33:54;15.60;77.30
68826;DHT22;55841;53.392;10.086;2022-07-23T02:36:20;15.50;77.50
68826;DHT22;55841;53.392;10.086;2022-07-23T02:38:45;15.50;77.70
68826;DHT22;55841;53.392;10.086;2022-07-23T02:41:11;15.40;77.90
68826;DHT22;55841;53.392;10.086;2022-07-23T02:43:36;15.40;78.00
68826;DHT22;55841;53.392;10.086;2022-07-23T02:46:02;15.40;77.90
68826;DHT22;55841;53.392;10.086;2022-07-23T02:48:27;15.40;78.00
68826;DHT22;55841;53.392;10.086;2022-07-23T02:50:53;15.40;78.10
68826;DHT22;55841;53.392;10.086;2022-07-23T02:53:18;15.40;78.70
68826;DHT22;55841;53.392;10.086;2022-07-23T02:55:44;15.30;78.70
68826;DHT22;55841;53.392;10.086;2022-07-23T02:58:09;15.30;78.70
68826;DHT22;55841;53.392;10.086;2022-07-23T03:00:36;15.20;78.60
68826;DHT22;55841;53.392;10.086;2022-07-23T03:03:01;15.20;78.90
68826;DHT22;55841;53.392;10.086;2022-07-23T03:05:27;15.20;79.00
68826;DHT22;55841;53.392;10.086;2022-07-23T03:07:52;15.20;79.10
68826;DHT22;55841;53.392;10.086;2022-07-23T03:10:18;15.20;79.30
68826;DHT22;55841;53.392;10.086;2022-07-23T03:12:43;15.10;79.50
68826;DHT22;55841;53.392;10.086;2022-07-23T03:15:09;15.10;79.80
68826;DHT22;55841;53.392;10.086;2022-07-23T03:17:35;15.10;79.80
68826;DHT22;55841;53.392;10.086;2022-07-23T03:20:00;15.10;79.90
68826;DHT22;55841;53.392;10.086;2022-07-23T03:22:26;15.00;80.30
68826;DHT22;55841;53.392;10.086;2022-07-23T03:24:51;15.00;80.50
68826;DHT22;55841;53.392;10.086;2022-07-23T03:27:17;14.90;80.80
68826;DHT22;55841;53.392;10.086;2022-07-23T03:29:42;14.90;80.80
68826;DHT22;55841;53.392;10.086;2022-07-23T03:32:08;14.90;80.80
68826;DHT22;55841;53.392;10.086;2022-07-23T03:34:33;15.00;80.60
68826;DHT22;55841;53.392;10.086;2022-07-23T03:36:59;14.90;80.60
68826;DHT22;55841;53.392;10.086;2022-07-23T03:39:24;14.90;80.60
68826;DHT22;55841;53.392;10.086;2022-07-23T03:41:50;14.90;80.60
68826;DHT22;55841;53.392;10.086;2022-07-23T03:44:16;14.90;80.60
68826;DHT22;55841;53.392;10.086;2022-07-23T03:46:41;14.90;80.50
68826;DHT22;55841;53.392;10.086;2022-07-23T03:49:07;14.90;80.60
68826;DHT22;55841;53.392;10.086;2022-07-23T03:51:32;14.90;80.70
68826;DHT22;55841;53.392;10.086;2022-07-23T03:53:58;14.90;80.70
68826;DHT22;55841;53.392;10.086;2022-07-23T03:56:23;14.90;80.70
68826;DHT22;55841;53.392;10.086;2022-07-23T03:58:49;14.90;80.70
68826;DHT22;55841;53.392;10.086;2022-07-23T04:01:15;14.90;80.40
68826;DHT22;55841;53.392;10.086;2022-07-23T04:03:40;15.00;80.60
68826;DHT22;55841;53.392;10.086;2022-07-23T04:06:06;15.10;80.50
68826;DHT22;55841;53.392;10.086;2022-07-23T04:08:32;15.10;80.30
68826;DHT22;55841;53.392;10.086;2022-07-23T04:10:57;15.20;80.20
68826;DHT22;55841;53.392;10.086;2022-07-23T04:13:23;15.30;79.80
68826;DHT22;55841;53.392;10.086;2022-07-23T04:15:48;15.30;79.80
68826;DHT22;55841;53.392;10.086;2022-07-23T04:18:14;15.30;79.50
68826;DHT22;55841;53.392;10.086;2022-07-23T04:20:40;15.30;79.60
68826;DHT22;55841;53.392;10.086;2022-07-23T04:23:05;15.30;79.90
68826;DHT22;55841;53.392;10.086;2022-07-23T04:25:31;15.30;80.00
68826;DHT22;55841;53.392;10.086;2022-07-23T04:27:56;15.20;80.10
68826;DHT22;55841;53.392;10.086;2022-07-23T04:30:22;15.20;80.10
68826;DHT22;55841;53.392;10.086;2022-07-23T04:32:47;15.20;80.40
68826;DHT22;55841;53.392;10.086;2022-07-23T04:35:13;15.20;80.10
68826;DHT22;55841;53.392;10.086;2022-07-23T04:37:38;15.30;80.20
68826;DHT22;55841;53.392;10.086;2022-07-23T04:40:04;15.30;80.30
68826;DHT22;55841;53.392;10.086;2022-07-23T04:42:30;15.30;80.50
68826;DHT22;55841;53.392;10.086;2022-07-23T04:44:55;15.30;80.60
68826;DHT22;55841;53.392;10.086;2022-07-23T04:47:21;15.20;80.50
68826;DHT22;55841;53.392;10.086;2022-07-23T04:49:47;15.20;80.90
68826;DHT22;55841;53.392;10.086;2022-07-23T04:52:12;15.20;81.10
68826;DHT22;55841;53.392;10.086;2022-07-23T04:54:38;15.20;81.30
68826;DHT22;55841;53.392;10.086;2022-07-23T04:57:03;15.20;81.30
68826;DHT22;55841;53.392;10.086;2022-07-23T04:59:29;15.20;81.30
68826;DHT22;55841;53.392;10.086;2022-07-23T05:01:54;15.20;81.70
68826;DHT22;55841;53.392;10.086;2022-07-23T05:04:20;15.20;82.00
68826;DHT22;55841;53.392;10.086;2022-07-23T05:06:46;15.30;81.60
68826;DHT22;55841;53.392;10.086;2022-07-23T05:09:12;15.20;81.70
68826;DHT22;55841;53.392;10.086;2022-07-23T05:11:37;15.20;82.10
68826;DHT22;55841;53.392;10.086;2022-07-23T05:14:03;15.30;81.40
68826;DHT22;55841;53.392;10.086;2022-07-23T05:16:28;15.30;81.70
68826;DHT22;55841;53.392;10.086;2022-07-23T05:18:54;15.30;81.90
68826;DHT22;55841;53.392;10.086;2022-07-23T05:21:19;15.30;81.90
68826;DHT22;55841;53.392;10.086;2022-07-23T05:23:45;15.30;81.70
68826;DHT22;55841;53.392;10.086;2022-07-23T05:26:11;15.40;81.70
68826;DHT22;55841;53.392;10.086;2022-07-23T05:28:36;15.40;81.70
68826;DHT22;55841;53.392;10.086;2022-07-23T05:31:02;15.50;81.40
68826;DHT22;55841;53.392;10.086;2022-07-23T05:33:28;15.60;81.40
68826;DHT22;55841;53.392;10.086;2022-07-23T05:35:53;15.70;81.20
68826;DHT22;55841;53.392;10.086;2022-07-23T05:38:19;15.70;80.20
68826;DHT22;55841;53.392;10.086;2022-07-23T05:40:44;15.70;80.90
68826;DHT22;55841;53.392;10.086;2022-07-23T05:43:10;15.70;80.20
68826;DHT22;55841;53.392;10.086;2022-07-23T05:45:35;15.70;80.40
68826;DHT22;55841;53.392;10.086;2022-07-23T05:48:01;15.80;80.50
68826;DHT22;55841;53.392;10.086;2022-07-23T05:50:26;15.80;80.30
68826;DHT22;55841;53.392;10.086;2022-07-23T05:52:52;15.80;79.90
68826;DHT22;55841;53.392;10.086;2022-07-23T05:55:17;15.90;79.90
68826;DHT22;55841;53.392;10.086;2022-07-23T05:57:43;15.90;80.10
68826;DHT22;55841;53.392;10.086;2022-07-23T06:00:09;16.00;79.90
68826;DHT22;55841;53.392;10.086;2022-07-23T06:02:35;16.00;79.60
68826;DHT22;55841;53.392;10.086;2022-07-23T06:05:10;16.10;79.50
68826;DHT22;55841;53.392;10.086;2022-07-23T06:07:35;16.20;79.20
68826;DHT22;55841;53.392;10.086;2022-07-23T06:10:01;16.20;79.20
68826;DHT22;55841;53.392;10.086;2022-07-23T06:12:27;16.30;78.80
68826;DHT22;55841;53.392;10.086;2022-07-23T06:14:52;16.40;78.80
68826;DHT22;55841;53.392;10.086;2022-07-23T06:17:18;16.40;78.60
68826;DHT22;55841;53.392;10.086;2022-07-23T06:19:44;16.40;78.80
68826;DHT22;55841;53.392;10.086;2022-07-23T06:22:09;16.60;78.70
68826;DHT22;55841;53.392;10.086;2022-07-23T06:24:35;16.70;77.70
68826;DHT22;55841;53.392;10.086;2022-07-23T06:27:00;16.80;77.60
68826;DHT22;55841;53.392;10.086;2022-07-23T06:29:26;16.90;76.40
68826;DHT22;55841;53.392;10.086;2022-07-23T06:31:51;17.00;76.40
68826;DHT22;55841;53.392;10.086;2022-07-23T06:34:17;17.00;76.90
68826;DHT22;55841;53.392;10.086;2022-07-23T06:36:42;17.10;75.70
68826;DHT22;55841;53.392;10.086;2022-07-23T06:39:08;17.10;76.10
68826;DHT22;55841;53.392;10.086;2022-07-23T06:41:33;17.10;74.90
68826;DHT22;55841;53.392;10.086;2022-07-23T06:43:59;17.00;75.00
68826;DHT22;55841;53.392;10.086;2022-07-23T06:46:25;17.10;75.00
68826;DHT22;55841;53.392;10.086;2022-07-23T06:48:52;17.20;73.80
68826;DHT22;55841;53.392;10.086;2022-07-23T06:51:24;17.30;73.60
68826;DHT22;55841;53.392;10.086;2022-07-23T06:53:50;17.40;73.00
68826;DHT22;55841;53.392;10.086;2022-07-23T06:56:15;17.40;72.50
68826;DHT22;55841;53.392;10.086;2022-07-23T06:58:41;17.30;73.20
68826;DHT22;55841;53.392;10.086;2022-07-23T07:01:06;17.40;73.10
68826;DHT22;55841;53.392;10.086;2022-07-23T07:03:32;17.50;72.60
68826;DHT22;55841;53.392;10.086;2022-07-23T07:05:57;17.50;71.70
68826;DHT22;55841;53.392;10.086;2022-07-23T07:08:23;17.60;72.50
68826;DHT22;55841;53.392;10.086;2022-07-23T07:10:49;17.70;72.30
68826;DHT22;55841;53.392;10.086;2022-07-23T07:13:15;17.80;71.70
68826;DHT22;55841;53.392;10.086;2022-07-23T07:15:41;17.70;71.00
68826;DHT22;55841;53.392;10.086;2022-07-23T07:18:06;17.70;71.40
68826;DHT22;55841;53.392;10.086;2022-07-23T07:20:32;17.70;71.20
68826;DHT22;55841;53.392;10.086;2022-07-23T07:22:57;17.70;71.10
68826;DHT22;55841;53.392;10.086;2022-07-23T07:25:23;17.80;70.30
68826;DHT22;55841;53.392;10.086;2022-07-23T07:27:48;17.80;69.60
68826;DHT22;55841;53.392;10.086;2022-07-23T07:30:14;17.80;70.10
68826;DHT22;55841;53.392;10.086;2022-07-23T07:32:40;17.90;70.20
68826;DHT22;55841;53.392;10.086;2022-07-23T07:35:06;18.00;68.70
68826;DHT22;55841;53.392;10.086;2022-07-23T07:37:32;18.00;68.50
68826;DHT22;55841;53.392;10.086;2022-07-23T07:39:58;18.00;69.10
68826;DHT22;55841;53.392;10.086;2022-07-23T07:42:23;18.00;68.30
68826;DHT22;55841;53.392;10.086;2022-07-23T07:44:49;18.00;68.00
68826;DHT22;55841;53.392;10.086;2022-07-23T07:47:14;18.10;68.50
68826;DHT22;55841;53.392;10.086;2022-07-23T07:49:43;18.20;67.60
68826;DHT22;55841;53.392;10.086;2022-07-23T07:52:09;18.20;67.00
68826;DHT22;55841;53.392;10.086;2022-07-23T07:54:35;18.30;67.90
68826;DHT22;55841;53.392;10.086;2022-07-23T07:57:01;18.40;67.00
68826;DHT22;55841;53.392;10.086;2022-07-23T07:59:29;18.30;67.20
68826;DHT22;55841;53.392;10.086;2022-07-23T08:01:55;18.40;67.20
68826;DHT22;55841;53.392;10.086;2022-07-23T08:04:20;18.40;66.60
68826;DHT22;55841;53.392;10.086;2022-07-23T08:06:46;18.50;66.90
68826;DHT22;55841;53.392;10.086;2022-07-23T08:09:12;18.50;65.70
68826;DHT22;55841;53.392;10.086;2022-07-23T08:11:37;18.50;65.10
68826;DHT22;55841;53.392;10.086;2022-07-23T08:14:03;18.60;65.20
68826;DHT22;55841;53.392;10.086;2022-07-23T08:16:28;18.70;65.40
68826;DHT22;55841;53.392;10.086;2022-07-23T08:18:54;19.00;66.00
68826;DHT22;55841;53.392;10.086;2022-07-23T08:21:20;19.10;63.80
68826;DHT22;55841;53.392;10.086;2022-07-23T08:23:45;19.20;64.60
68826;DHT22;55841;53.392;10.086;2022-07-23T08:26:11;19.30;64.00
68826;DHT22;55841;53.392;10.086;2022-07-23T08:28:37;19.40;62.40
68826;DHT22;55841;53.392;10.086;2022-07-23T08:31:02;19.50;62.50
68826;DHT22;55841;53.392;10.086;2022-07-23T08:33:28;19.50;62.30
68826;DHT22;55841;53.392;10.086;2022-07-23T08:35:54;19.40;63.20
68826;DHT22;55841;53.392;10.086;2022-07-23T08:38:21;19.60;62.60
68826;DHT22;55841;53.392;10.086;2022-07-23T08:40:48;19.60;62.60
68826;DHT22;55841;53.392;10.086;2022-07-23T08:43:17;19.30;63.90
68826;DHT22;55841;53.392;10.086;2022-07-23T08:45:45;19.30;63.20
68826;DHT22;55841;53.392;10.086;2022-07-23T08:48:13;19.10;62.60
68826;DHT22;55841;53.392;10.086;2022-07-23T08:50:43;18.90;64.60
68826;DHT22;55841;53.392;10.086;2022-07-23T08:53:09;18.70;64.80
68826;DHT22;55841;53.392;10.086;2022-07-23T08:55:35;18.70;65.90
68826;DHT22;55841;53.392;10.086;2022-07-23T08:58:01;18.70;65.60
68826;DHT22;55841;53.392;10.086;2022-07-23T09:00:27;18.70;65.40
68826;DHT22;55841;53.392;10.086;2022-07-23T09:02:53;18.70;65.10
68826;DHT22;55841;53.392;10.086;2022-07-23T09:05:19;18.80;65.30
68826;DHT22;55841;53.392;10.086;2022-07-23T09:10:56;19.20;64.50
68826;DHT22;55841;53.392;10.086;2022-07-23T09:15:53;19.50;63.80
68826;DHT22;55841;53.392;10.086;2022-07-23T09:18:19;19.70;63.30
68826;DHT22;55841;53.392;10.086;2022-07-23T09:23:46;19.40;62.80
68826;DHT22;55841;53.392;10.086;2022-07-23T09:26:33;19.10;63.70
68826;DHT22;55841;53.392;10.086;2022-07-23T09:31:43;18.80;64.20
68826;DHT22;55841;53.392;10.086;2022-07-23T09:34:20;18.70;63.90
68826;DHT22;55841;53.392;10.086;2022-07-23T09:36:47;18.60;64.40
68826;DHT22;55841;53.392;10.086;2022-07-23T09:39:15;18.60;63.70
68826;DHT22;55841;53.392;10.086;2022-07-23T09:41:44;18.70;63.80
68826;DHT22;55841;53.392;10.086;2022-07-23T09:44:18;18.80;63.50
68826;DHT22;55841;53.392;10.086;2022-07-23T09:46:45;18.80;63.50
68826;DHT22;55841;53.392;10.086;2022-07-23T09:49:14;18.90;63.50
68826;DHT22;55841;53.392;10.086;2022-07-23T09:54:28;19.00;61.40
68826;DHT22;55841;53.392;10.086;2022-07-23T09:56:54;19.20;60.00
68826;DHT22;55841;53.392;10.086;2022-07-23T09:59:24;19.40;58.30
68826;DHT22;55841;53.392;10.086;2022-07-23T10:01:50;19.50;58.90
68826;DHT22;55841;53.392;10.086;2022-07-23T10:04:17;19.70;58.40
68826;DHT22;55841;53.392;10.086;2022-07-23T10:06:44;20.00;57.60
68826;DHT22;55841;53.392;10.086;2022-07-23T10:09:12;20.30;56.10
68826;DHT22;55841;53.392;10.086;2022-07-23T10:11:37;20.50;56.10
68826;DHT22;55841;53.392;10.086;2022-07-23T10:14:04;21.00;53.60
68826;DHT22;55841;53.392;10.086;2022-07-23T10:16:29;21.10;53.60
68826;DHT22;55841;53.392;10.086;2022-07-23T10:18:55;21.30;54.00
68826;DHT22;55841;53.392;10.086;2022-07-23T10:29:47;20.30;55.60
68826;DHT22;55841;53.392;10.086;2022-07-23T10:35:36;19.70;57.40
68826;DHT22;55841;53.392;10.086;2022-07-23T10:38:25;19.40;58.80
68826;DHT22;55841;53.392;10.086;2022-07-23T10:40:58;19.30;59.90
68826;DHT22;55841;53.392;10.086;2022-07-23T10:43:24;19.30;60.30
68826;DHT22;55841;53.392;10.086;2022-07-23T10:45:50;19.50;60.10
68826;DHT22;55841;53.392;10.086;2022-07-23T10:48:24;19.60;59.90
68826;DHT22;55841;53.392;10.086;2022-07-23T10:56:15;20.00;58.10
68826;DHT22;55841;53.392;10.086;2022-07-23T10:58:49;20.40;58.30
68826;DHT22;55841;53.392;10.086;2022-07-23T11:01:37;20.80;55.30
68826;DHT22;55841;53.392;10.086;2022-07-23T11:04:04;20.80;54.30
68826;DHT22;55841;53.392;10.086;2022-07-23T11:09:41;21.20;52.90
68826;DHT22;55841;53.392;10.086;2022-07-23T11:15:03;21.20;53.40
68826;DHT22;55841;53.392;10.086;2022-07-23T11:17:32;21.20;53.10
68826;DHT22;55841;53.392;10.086;2022-07-23T11:22:36;21.40;52.30
68826;DHT22;55841;53.392;10.086;2022-07-23T11:25:05;21.50;52.70
68826;DHT22;55841;53.392;10.086;2022-07-23T11:27:40;21.60;52.00
68826;DHT22;55841;53.392;10.086;2022-07-23T11:30:08;21.70;51.50
68826;DHT22;55841;53.392;10.086;2022-07-23T11:32:39;21.80;52.70
68826;DHT22;55841;53.392;10.086;2022-07-23T11:35:25;22.00;50.80
68826;DHT22;55841;53.392;10.086;2022-07-23T11:37:53;21.80;51.50
68826;DHT22;55841;53.392;10.086;2022-07-23T11:40:19;21.90;51.80
68826;DHT22;55841;53.392;10.086;2022-07-23T11:42:56;21.60;52.10
68826;DHT22;55841;53.392;10.086;2022-07-23T11:45:23;21.60;52.70
68826;DHT22;55841;53.392;10.086;2022-07-23T11:47:49;21.50;52.00
68826;DHT22;55841;53.392;10.086;2022-07-23T11:50:14;21.50;52.90
68826;DHT22;55841;53.392;10.086;2022-07-23T11:52:40;21.40;52.80
68826;DHT22;55841;53.392;10.086;2022-07-23T11:55:10;21.20;53.10
68826;DHT22;55841;53.392;10.086;2022-07-23T11:57:38;21.20;52.80
68826;DHT22;55841;53.392;10.086;2022-07-23T12:02:32;21.20;52.40
68826;DHT22;55841;53.392;10.086;2022-07-23T12:04:58;21.40;53.70
68826;DHT22;55841;53.392;10.086;2022-07-23T12:07:43;21.40;51.90
68826;DHT22;55841;53.392;10.086;2022-07-23T12:10:56;-50.00;1.00
68826;DHT22;55841;53.392;10.086;2022-07-23T12:14:14;-50.00;1.00
68826;DHT22;55841;53.392;10.086;2022-07-23T12:16:45;21.60;51.40
68826;DHT22;55841;53.392;10.086;2022-07-23T12:19:13;-50.00;1.00
68826;DHT22;55841;53.392;10.086;2022-07-23T12:21:57;-50.00;1.00
68826;DHT22;55841;53.392;10.086;2022-07-23T12:25:20;21.80;50.30
68826;DHT22;55841;53.392;10.086;2022-07-23T12:28:07;21.70;50.50
68826;DHT22;55841;53.392;10.086;2022-07-23T12:33:04;21.60;52.10
68826;DHT22;55841;53.392;10.086;2022-07-23T12:35:53;21.40;52.30
68826;DHT22;55841;53.392;10.086;2022-07-23T12:38:20;21.30;53.40
68826;DHT22;55841;53.392;10.086;2022-07-23T12:40:51;21.20;53.50
68826;DHT22;55841;53.392;10.086;2022-07-23T12:43:25;21.20;52.70
68826;DHT22;55841;53.392;10.086;2022-07-23T12:45:52;21.30;52.80
68826;DHT22;55841;53.392;10.086;2022-07-23T12:50:49;21.50;53.40
68826;DHT22;55841;53.392;10.086;2022-07-23T12:53:18;21.70;51.90
68826;DHT22;55841;53.392;10.086;2022-07-23T12:55:46;21.80;51.60
68826;DHT22;55841;53.392;10.086;2022-07-23T12:58:14;21.80;52.00
68826;DHT22;55841;53.392;10.086;2022-07-23T13:00:59;21.80;52.60
68826;DHT22;55841;53.392;10.086;2022-07-23T13:03:28;21.90;52.20
68826;DHT22;55841;53.392;10.086;2022-07-23T13:05:55;22.00;53.00
68826;DHT22;55841;53.392;10.086;2022-07-23T13:08:21;21.90;51.20
68826;DHT22;55841;53.392;10.086;2022-07-23T13:10:47;21.60;51.90
68826;DHT22;55841;53.392;10.086;2022-07-23T13:13:13;21.50;52.40
68826;DHT22;55841;53.392;10.086;2022-07-23T13:15:39;21.30;51.80
68826;DHT22;55841;53.392;10.086;2022-07-23T13:18:04;21.10;53.20
68826;DHT22;55841;53.392;10.086;2022-07-23T13:20:31;21.10;55.00
68826;DHT22;55841;53.392;10.086;2022-07-23T13:22:57;21.30;55.40
68826;DHT22;55841;53.392;10.086;2022-07-23T13:25:23;21.30;55.30
68826;DHT22;55841;53.392;10.086;2022-07-23T13:27:48;21.30;55.90
68826;DHT22;55841;53.392;10.086;2022-07-23T13:30:14;21.10;56.50
68826;DHT22;55841;53.392;10.086;2022-07-23T13:32:40;20.90;56.10
68826;DHT22;55841;53.392;10.086;2022-07-23T13:35:06;20.80;56.10
68826;DHT22;55841;53.392;10.086;2022-07-23T13:37:31;20.60;57.10
68826;DHT22;55841;53.392;10.086;2022-07-23T13:39:57;20.50;57.50
68826;DHT22;55841;53.392;10.086;2022-07-23T13:42:22;20.40;57.10
68826;DHT22;55841;53.392;10.086;2022-07-23T13:44:48;20.30;57.60
68826;DHT22;55841;53.392;10.086;2022-07-23T13:47:13;20.30;58.10
68826;DHT22;55841;53.392;10.086;2022-07-23T13:49:39;20.60;57.60
68826;DHT22;55841;53.392;10.086;2022-07-23T13:52:05;20.90;56.60
68826;DHT22;55841;53.392;10.086;2022-07-23T13:54:30;21.20;56.30
68826;DHT22;55841;53.392;10.086;2022-07-23T13:56:56;21.40;55.40
68826;DHT22;55841;53.392;10.086;2022-07-23T13:59:21;22.00;54.80
68826;DHT22;55841;53.392;10.086;2022-07-23T14:01:47;23.10;52.00
68826;DHT22;55841;53.392;10.086;2022-07-23T14:04:13;23.70;50.30
68826;DHT22;55841;53.392;10.086;2022-07-23T14:06:38;23.80;50.40
68826;DHT22;55841;53.392;10.086;2022-07-23T14:09:04;23.50;48.40
68826;DHT22;55841;53.392;10.086;2022-07-23T14:11:29;23.00;51.20
68826;DHT22;55841;53.392;10.086;2022-07-23T14:13:55;23.00;50.60
68826;DHT22;55841;53.392;10.086;2022-07-23T14:16:20;22.80;50.00
68826;DHT22;55841;53.392;10.086;2022-07-23T14:18:46;22.20;51.70
68826;DHT22;55841;53.392;10.086;2022-07-23T14:21:12;21.80;53.50
68826;DHT22;55841;53.392;10.086;2022-07-23T14:23:37;21.60;53.40
68826;DHT22;55841;53.392;10.086;2022-07-23T14:26:03;21.20;54.60
68826;DHT22;55841;53.392;10.086;2022-07-23T14:28:28;21.30;54.10
68826;DHT22;55841;53.392;10.086;2022-07-23T14:30:54;21.90;51.80
68826;DHT22;55841;53.392;10.086;2022-07-23T14:33:19;22.40;50.90
68826;DHT22;55841;53.392;10.086;2022-07-23T14:35:45;22.50;51.50
68826;DHT22;55841;53.392;10.086;2022-07-23T14:38:10;22.40;50.80
68826;DHT22;55841;53.392;10.086;2022-07-23T14:40:36;22.20;50.90
68826;DHT22;55841;53.392;10.086;2022-07-23T14:43:01;22.00;51.00
68826;DHT22;55841;53.392;10.086;2022-07-23T14:45:27;22.00;50.50
68826;DHT22;55841;53.392;10.086;2022-07-23T14:47:53;22.50;49.50
68826;DHT22;55841;53.392;10.086;2022-07-23T14:50:19;23.00;48.70
68826;DHT22;55841;53.392;10.086;2022-07-23T14:52:44;23.10;48.50
68826;DHT22;55841;53.392;10.086;2022-07-23T14:55:10;23.30;47.70
68826;DHT22;55841;53.392;10.086;2022-07-23T14:57:36;23.30;47.60
68826;DHT22;55841;53.392;10.086;2022-07-23T15:00:06;23.10;47.30
68826;DHT22;55841;53.392;10.086;2022-07-23T15:02:31;22.80;49.60
68826;DHT22;55841;53.392;10.086;2022-07-23T15:04:57;22.10;51.20
68826;DHT22;55841;53.392;10.086;2022-07-23T15:07:23;21.70;51.80
68826;DHT22;55841;53.392;10.086;2022-07-23T15:09:48;22.10;52.20
68826;DHT22;55841;53.392;10.086;2022-07-23T15:12:14;22.90;49.80
68826;DHT22;55841;53.392;10.086;2022-07-23T15:14:39;23.40;48.20
68826;DHT22;55841;53.392;10.086;2022-07-23T15:17:05;23.40;48.20
68826;DHT22;55841;53.392;10.086;2022-07-23T15:19:30;23.20;48.60
68826;DHT22;55841;53.392;10.086;2022-07-23T15:21:56;22.90;48.80
68826;DHT22;55841;53.392;10.086;2022-07-23T15:24:21;22.40;50.10
68826;DHT22;55841;53.392;10.086;2022-07-23T15:26:47;22.00;50.90
68826;DHT22;55841;53.392;10.086;2022-07-23T15:29:13;21.60;50.90
68826;DHT22;55841;53.392;10.086;2022-07-23T15:31:38;21.50;51.40
68826;DHT22;55841;53.392;10.086;2022-07-23T15:34:04;21.70;50.70
68826;DHT22;55841;53.392;10.086;2022-07-23T15:36:29;21.70;50.50
68826;DHT22;55841;53.392;10.086;2022-07-23T15:38:55;21.90;50.20
68826;DHT22;55841;53.392;10.086;2022-07-23T15:41:20;22.30;50.10
68826;DHT22;55841;53.392;10.086;2022-07-23T15:43:46;23.30;47.90
68826;DHT22;55841;53.392;10.086;2022-07-23T15:46:11;23.90;45.40
68826;DHT22;55841;53.392;10.086;2022-07-23T15:48:37;24.30;44.90
68826;DHT22;55841;53.392;10.086;2022-07-23T15:51:03;24.30;45.50
68826;DHT22;55841;53.392;10.086;2022-07-23T15:53:29;23.80;46.40
68826;DHT22;55841;53.392;10.086;2022-07-23T15:55:54;23.70;47.20
68826;DHT22;55841;53.392;10.086;2022-07-23T15:58:20;23.60;46.60
68826;DHT22;55841;53.392;10.086;2022-07-23T16:00:45;23.70;46.70